SWR2V KBOS-LSZH
Flight info
| Callsign | SWR2V |
|---|---|
| Flight time | N/A |
| Altitude | 37000 |
| Route | LBSTA8 LBSTA DCT ALLEX N503B ALLRY/M085F390 NATY XETBO/M085F410 DCT ARKIL/N0489F410 DCT LIZAD DCT JSY DCT ARSUK DCT RESMI DCT TEPRI DCT POGZI DCT GELTA DCT MANAG DCT PEVIT DCT BLM |
| Aircraft | A359/H-SDE2E3GHIJ3J4J5LM1ORWXY/LB1D1 |
Departure
| Time | 2026-05-07 03:47 |
|---|---|
| Airport | Boston Logan International Airport (KBOS) |
Arrival
| Time | N/A |
|---|---|
| Airport | Zürich Airport (LSZH) |
| Time | Latitude | Longitude | Altitude | Speed | Heading |
|---|---|---|---|---|---|
| 2026-05-07 03:18 | 42.37142 | -71.02087 | 32 ft | 0 kts | 177° |
| 2026-05-07 03:38 | 42.37162 | -71.02088 | 31 ft | 4 kts | 177° |
| 2026-05-07 03:38 | 42.37188 | -71.02090 | 31 ft | 4 kts | 172° |
| 2026-05-07 03:38 | 42.37213 | -71.02100 | 30 ft | 4 kts | 142° |
| 2026-05-07 03:38 | 42.37224 | -71.02121 | 30 ft | 3 kts | 64° |
| 2026-05-07 03:39 | 42.37214 | -71.02145 | 27 ft | 4 kts | 58° |
| 2026-05-07 03:39 | 42.37206 | -71.02163 | 28 ft | 2 kts | 58° |
| 2026-05-07 03:41 | 42.37223 | -71.02114 | 29 ft | 13 kts | 68° |
| 2026-05-07 03:41 | 42.37229 | -71.01987 | 32 ft | 13 kts | 103° |
| 2026-05-07 03:42 | 42.37181 | -71.01864 | 32 ft | 16 kts | 124° |
| 2026-05-07 03:42 | 42.37117 | -71.01737 | 32 ft | 17 kts | 123° |
| 2026-05-07 03:42 | 42.37045 | -71.01614 | 32 ft | 17 kts | 136° |
| 2026-05-07 03:42 | 42.36957 | -71.01493 | 32 ft | 20 kts | 134° |
| 2026-05-07 03:43 | 42.36861 | -71.01354 | 32 ft | 20 kts | 117° |
| 2026-05-07 03:43 | 42.36902 | -71.01202 | 32 ft | 17 kts | 42° |
| 2026-05-07 03:43 | 42.37003 | -71.01106 | 32 ft | 18 kts | 30° |
| 2026-05-07 03:43 | 42.37139 | -71.01011 | 32 ft | 27 kts | 22° |
| 2026-05-07 03:44 | 42.37319 | -71.00902 | 32 ft | 29 kts | 24° |
| 2026-05-07 03:44 | 42.37496 | -71.00817 | 32 ft | 25 kts | 20° |
| 2026-05-07 03:44 | 42.37665 | -71.00736 | 32 ft | 26 kts | 19° |
| 2026-05-07 03:44 | 42.37810 | -71.00660 | 32 ft | 17 kts | 36° |
| 2026-05-07 03:45 | 42.37819 | -71.00517 | 32 ft | 16 kts | 110° |
| 2026-05-07 03:45 | 42.37781 | -71.00368 | 32 ft | 17 kts | 109° |
| 2026-05-07 03:45 | 42.37739 | -71.00210 | 32 ft | 18 kts | 110° |
| 2026-05-07 03:45 | 42.37694 | -71.00041 | 32 ft | 20 kts | 110° |
| 2026-05-07 03:46 | 42.37600 | -70.99980 | 32 ft | 16 kts | 197° |
| 2026-05-07 03:46 | 42.37478 | -71.00038 | 32 ft | 25 kts | 198° |
| 2026-05-07 03:46 | 42.37095 | -71.00220 | 33 ft | 99 kts | 200° |
| 2026-05-07 03:46 | 42.36201 | -71.00650 | 143 ft | 162 kts | 200° |
| 2026-05-07 03:47 | 42.35093 | -71.01167 | 932 ft | 173 kts | 201° |
| 2026-05-07 03:47 | 42.33818 | -71.01554 | 1518 ft | 215 kts | 187° |
| 2026-05-07 03:47 | 42.32273 | -71.00860 | 2212 ft | 250 kts | 147° |
| 2026-05-07 03:47 | 42.31270 | -70.98997 | 3242 ft | 244 kts | 117° |
| 2026-05-07 03:48 | 42.30869 | -70.96809 | 3941 ft | 247 kts | 94° |
| 2026-05-07 03:48 | 42.31079 | -70.94448 | 4333 ft | 263 kts | 77° |
| 2026-05-07 03:48 | 42.31539 | -70.91968 | 4624 ft | 282 kts | 76° |
| 2026-05-07 03:48 | 42.32021 | -70.89326 | 5050 ft | 295 kts | 77° |
| 2026-05-07 03:49 | 42.32487 | -70.86559 | 5627 ft | 302 kts | 79° |
| 2026-05-07 03:49 | 42.32932 | -70.83760 | 6257 ft | 308 kts | 79° |
| 2026-05-07 03:49 | 42.33368 | -70.80940 | 6914 ft | 311 kts | 80° |
| 2026-05-07 03:49 | 42.33878 | -70.78087 | 7598 ft | 316 kts | 71° |
| 2026-05-07 03:50 | 42.35057 | -70.75577 | 8251 ft | 318 kts | 39° |
| 2026-05-07 03:50 | 42.36932 | -70.74101 | 8961 ft | 311 kts | 13° |
| 2026-05-07 03:50 | 42.38999 | -70.73222 | 9694 ft | 313 kts | 9° |
| 2026-05-07 03:50 | 42.40418 | -70.72668 | 10116 ft | 317 kts | 9° |
| 2026-05-07 03:51 | 42.42592 | -70.71814 | 10478 ft | 334 kts | 10° |
| 2026-05-07 03:51 | 42.44848 | -70.70905 | 10756 ft | 353 kts | 11° |